createdAt,value
2019-01-04T00:00:42.337Z,38.33
2019-01-04T00:03:11.443Z,38.50
2019-01-04T00:05:39.925Z,41.37
2019-01-04T00:08:08.343Z,38.30
2019-01-04T00:10:36.736Z,40.60
2019-01-04T00:13:05.396Z,40.48
2019-01-04T00:15:34.088Z,38.42
2019-01-04T00:18:02.475Z,42.10
2019-01-04T00:20:31.458Z,43.35
2019-01-04T00:22:59.869Z,41.15
2019-01-04T00:25:28.275Z,43.13
2019-01-04T00:27:57.003Z,40.43
2019-01-04T00:30:25.463Z,41.50
2019-01-04T00:32:53.868Z,40.38
2019-01-04T00:35:22.268Z,40.78
2019-01-04T00:37:51.026Z,38.88
2019-01-04T00:40:19.420Z,41.20
2019-01-04T00:42:47.823Z,41.55
2019-01-04T00:45:16.227Z,37.83
2019-01-04T00:47:44.950Z,42.95
2019-01-04T00:50:13.530Z,37.73
2019-01-04T00:52:41.926Z,41.15
2019-01-04T00:55:16.033Z,41.30
2019-01-04T00:57:59.557Z,42.62
2019-01-04T01:00:40.088Z,41.73
2019-01-04T01:03:31.148Z,41.18
2019-01-04T01:06:05.665Z,41.63
2019-01-04T01:09:08.930Z,40.75
2019-01-04T01:11:57.049Z,42.73
2019-01-04T01:14:50.912Z,44.05
2019-01-04T01:17:27.929Z,43.90
2019-01-04T01:19:59.391Z,42.73
2019-01-04T01:22:48.581Z,45.50
2019-01-04T01:25:23.251Z,46.73
2019-01-04T01:28:11.439Z,44.35
2019-01-04T01:30:42.904Z,44.15
2019-01-04T01:33:26.262Z,44.30
2019-01-04T01:36:00.395Z,43.25
2019-01-04T01:38:31.840Z,42.50
2019-01-04T01:41:28.911Z,42.50
2019-01-04T01:44:06.430Z,41.53
2019-01-04T01:46:46.792Z,41.23
2019-01-04T01:49:21.356Z,42.62
2019-01-04T01:51:53.058Z,39.20
2019-01-04T01:54:21.469Z,43.00
2019-01-04T01:56:50.104Z,37.65
2019-01-04T01:59:18.591Z,39.48
2019-01-04T02:01:47.305Z,37.60
2019-01-04T02:04:15.709Z,38.48
2019-01-04T02:06:44.110Z,37.33
2019-01-04T02:09:12.508Z,37.83
2019-01-04T02:11:41.239Z,37.83
2019-01-04T02:14:09.629Z,35.90
2019-01-04T02:16:38.030Z,38.40
2019-01-04T02:19:06.502Z,38.63
2019-01-04T02:21:34.897Z,38.00
2019-01-04T02:24:03.630Z,39.90
2019-01-04T02:26:32.023Z,40.12
2019-01-04T02:29:00.699Z,38.70
2019-01-04T02:31:29.114Z,39.30
2019-01-04T02:33:57.762Z,40.20
2019-01-04T02:36:26.160Z,39.27
2019-01-04T02:38:54.822Z,39.67
2019-01-04T02:41:23.216Z,38.95
2019-01-04T02:43:51.623Z,38.17
2019-01-04T02:46:20.269Z,39.05
2019-01-04T02:48:48.954Z,39.45
2019-01-04T02:51:17.638Z,38.63
2019-01-04T02:53:46.048Z,39.80
2019-01-04T02:56:14.702Z,41.85
2019-01-04T02:58:43.113Z,39.18
2019-01-04T03:01:11.872Z,39.65
2019-01-04T03:03:40.270Z,43.95
2019-01-04T03:06:08.679Z,40.67
2019-01-04T03:08:37.080Z,41.85
2019-01-04T03:11:05.799Z,42.05
2019-01-04T03:13:34.213Z,39.27
2019-01-04T03:16:02.600Z,40.60
2019-01-04T03:18:30.998Z,39.88
2019-01-04T03:20:59.724Z,40.80
2019-01-04T03:23:28.118Z,41.42
2019-01-04T03:25:56.517Z,42.78
2019-01-04T03:28:25.266Z,40.95
2019-01-04T03:30:54.384Z,42.10
2019-01-04T03:33:23.151Z,39.90
2019-01-04T03:35:51.575Z,41.23
2019-01-04T03:38:19.960Z,40.80
2019-01-04T03:40:48.355Z,39.92
2019-01-04T03:43:16.767Z,40.73
2019-01-04T03:45:45.171Z,40.35
2019-01-04T03:48:13.562Z,40.70
2019-01-04T03:50:41.971Z,37.20
2019-01-04T03:53:10.369Z,41.30
2019-01-04T03:55:39.073Z,40.95
2019-01-04T03:58:07.491Z,39.30
2019-01-04T04:00:35.891Z,39.35
2019-01-04T04:03:04.295Z,39.30
2019-01-04T04:05:33.181Z,40.88
2019-01-04T04:08:01.890Z,40.83
2019-01-04T04:10:30.352Z,38.92
2019-01-04T04:12:58.761Z,41.00
2019-01-04T04:15:27.474Z,41.50
2019-01-04T04:17:55.876Z,40.58
2019-01-04T04:20:24.598Z,39.80
2019-01-04T04:22:52.995Z,39.05
2019-01-04T04:25:21.395Z,41.18
2019-01-04T04:27:49.809Z,40.10
2019-01-04T04:30:18.204Z,41.80
2019-01-04T04:32:46.903Z,42.78
2019-01-04T04:35:15.315Z,40.30
2019-01-04T04:37:43.714Z,41.23
2019-01-04T04:40:12.107Z,39.78
2019-01-04T04:42:40.511Z,42.67
2019-01-04T04:45:09.208Z,42.38
2019-01-04T04:47:37.892Z,42.35
2019-01-04T04:50:06.439Z,40.40
2019-01-04T04:52:34.832Z,42.35
2019-01-04T04:55:03.230Z,44.48
2019-01-04T04:57:31.919Z,42.78
2019-01-04T05:00:00.387Z,44.38
2019-01-04T05:02:29.089Z,44.40
2019-01-04T05:04:57.771Z,43.85
2019-01-04T05:07:26.168Z,43.55
2019-01-04T05:09:54.563Z,41.60
2019-01-04T05:12:22.976Z,41.02
2019-01-04T05:14:51.618Z,42.85
2019-01-04T05:17:20.012Z,41.77
2019-01-04T05:19:48.425Z,40.88
2019-01-04T05:22:17.138Z,41.85
2019-01-04T05:24:45.535Z,42.93
2019-01-04T05:27:14.189Z,40.73
2019-01-04T05:29:42.587Z,40.00
2019-01-04T05:32:11.269Z,41.23
2019-01-04T05:34:39.953Z,40.80
2019-01-04T05:37:08.356Z,41.45
2019-01-04T05:39:37.019Z,42.35
2019-01-04T05:42:05.441Z,42.73
2019-01-04T05:44:33.827Z,41.28
2019-01-04T05:47:02.463Z,38.63
2019-01-04T05:49:31.147Z,39.78
2019-01-04T05:51:59.841Z,39.20
2019-01-04T05:54:28.230Z,41.55
2019-01-04T05:56:56.635Z,37.53
2019-01-04T05:59:25.022Z,38.78
2019-01-04T06:01:53.759Z,39.70
2019-01-04T06:04:22.174Z,38.45
2019-01-04T06:06:50.825Z,38.98
2019-01-04T06:09:19.224Z,39.23
2019-01-04T06:11:47.635Z,40.40
2019-01-04T06:14:16.027Z,42.30
2019-01-04T06:16:44.430Z,39.58
2019-01-04T06:19:12.844Z,42.90
2019-01-04T06:21:41.236Z,41.63
2019-01-04T06:24:09.632Z,40.15
2019-01-04T06:26:38.045Z,40.40
2019-01-04T06:29:06.438Z,40.08
2019-01-04T06:31:35.126Z,38.67
2019-01-04T06:34:03.536Z,40.75
2019-01-04T06:36:32.172Z,41.28
2019-01-04T06:39:00.570Z,40.35
2019-01-04T06:41:28.983Z,39.45
2019-01-04T06:43:57.618Z,41.70
2019-01-04T06:46:26.255Z,42.30
2019-01-04T06:48:54.664Z,40.10
2019-01-04T06:51:27.716Z,41.95
2019-01-04T06:53:53.177Z,41.80
2019-01-04T06:56:21.597Z,40.73
2019-01-04T06:58:49.986Z,41.58
2019-01-04T07:01:18.377Z,45.38
2019-01-04T07:03:46.790Z,41.45
2019-01-04T07:06:15.237Z,42.75
2019-01-04T07:08:43.974Z,42.33
2019-01-04T07:11:12.389Z,46.35
2019-01-04T07:13:40.846Z,43.83
2019-01-04T07:16:09.239Z,43.28
2019-01-04T07:18:37.903Z,42.53
2019-01-04T07:21:06.293Z,41.08
2019-01-04T07:23:34.689Z,41.55
2019-01-04T07:26:03.451Z,42.35
2019-01-04T07:28:32.135Z,44.90
2019-01-04T07:31:00.534Z,45.10
2019-01-04T07:33:28.941Z,44.00
2019-01-04T07:35:57.335Z,45.38
2019-01-04T07:38:26.059Z,45.75
2019-01-04T07:40:54.475Z,47.70
2019-01-04T07:43:22.870Z,45.12
2019-01-04T07:45:51.604Z,44.70
2019-01-04T07:48:20.025Z,45.12
2019-01-04T07:50:48.408Z,47.75
2019-01-04T07:53:16.800Z,45.30
2019-01-04T07:55:45.209Z,45.55
2019-01-04T07:58:13.911Z,47.30
2019-01-04T08:00:42.301Z,45.40
2019-01-04T08:03:10.723Z,43.83
2019-01-04T08:05:39.110Z,44.23
2019-01-04T08:08:07.509Z,44.70
2019-01-04T08:10:35.919Z,42.05
2019-01-04T08:13:04.317Z,43.45
2019-01-04T08:15:32.968Z,42.15
2019-01-04T08:18:01.375Z,44.85
2019-01-04T08:20:29.765Z,41.53
2019-01-04T08:22:58.174Z,44.33
2019-01-04T08:25:26.892Z,42.15
2019-01-04T08:27:55.289Z,41.37
2019-01-04T08:30:23.951Z,41.05
2019-01-04T08:32:52.348Z,42.17
2019-01-04T08:35:20.761Z,41.08
2019-01-04T08:37:49.154Z,40.25
2019-01-04T08:40:17.540Z,38.10
2019-01-04T08:42:45.949Z,40.08
2019-01-04T08:45:14.347Z,41.88
2019-01-04T08:47:42.737Z,37.75
2019-01-04T08:50:11.306Z,39.23
2019-01-04T08:52:39.973Z,37.35
2019-01-04T08:55:09.397Z,37.28
2019-01-04T08:57:38.071Z,39.70
2019-01-04T09:00:11.912Z,38.75
2019-01-04T09:02:40.660Z,37.15
2019-01-04T09:05:09.451Z,35.83
2019-01-04T09:07:37.841Z,36.77
2019-01-04T09:10:07.596Z,35.65
2019-01-04T09:12:35.986Z,35.58
2019-01-04T09:15:06.548Z,34.60
2019-01-04T09:17:34.955Z,33.35
2019-01-04T09:20:04.882Z,35.43
2019-01-04T09:22:33.529Z,32.23
2019-01-04T09:25:01.937Z,32.50
2019-01-04T09:27:30.593Z,33.10
2019-01-04T09:29:58.984Z,33.10
2019-01-04T09:32:27.631Z,34.35
2019-01-04T09:34:56.348Z,33.65
2019-01-04T09:37:25.029Z,31.27
2019-01-04T09:39:53.443Z,31.00
2019-01-04T09:42:22.192Z,34.33
2019-01-04T09:44:50.882Z,32.20
2019-01-04T09:47:19.284Z,32.90
2019-01-04T09:49:47.678Z,31.20
2019-01-04T09:52:16.086Z,30.90
2019-01-04T09:54:44.488Z,29.50
2019-01-04T09:57:13.180Z,29.00
2019-01-04T09:59:41.830Z,30.55
2019-01-04T10:02:10.224Z,28.45
2019-01-04T10:04:38.614Z,29.70
2019-01-04T10:07:07.022Z,26.55
2019-01-04T10:09:35.414Z,29.52
2019-01-04T10:12:04.068Z,25.68
2019-01-04T10:14:32.474Z,26.62
2019-01-04T10:17:00.884Z,27.50
2019-01-04T10:19:29.283Z,26.12
2019-01-04T10:21:57.688Z,27.25
2019-01-04T10:24:26.080Z,26.97
2019-01-04T10:26:54.484Z,26.48
2019-01-04T10:29:22.887Z,29.05
2019-01-04T10:31:51.280Z,26.37
2019-01-04T10:34:19.685Z,26.17
2019-01-04T10:36:48.077Z,23.85
2019-01-04T10:39:16.748Z,23.60
2019-01-04T10:41:45.157Z,24.60
2019-01-04T10:44:13.814Z,24.63
2019-01-04T10:46:42.601Z,23.12
2019-01-04T10:49:11.288Z,23.25
2019-01-04T10:51:40.019Z,22.37
2019-01-04T10:54:08.385Z,24.45
2019-01-04T10:56:36.784Z,25.15
2019-01-04T10:59:05.622Z,25.10
2019-01-04T11:01:34.269Z,24.82
2019-01-04T11:04:02.662Z,27.05
2019-01-04T11:06:31.373Z,25.27
2019-01-04T11:08:59.777Z,26.05
2019-01-04T11:11:28.172Z,27.48
2019-01-04T11:13:56.576Z,26.27
2019-01-04T11:16:25.300Z,27.58
2019-01-04T11:18:53.694Z,26.87
2019-01-04T11:21:22.098Z,27.27
2019-01-04T11:23:59.251Z,27.50
2019-01-04T11:26:31.005Z,28.30
2019-01-04T11:29:18.882Z,25.60
2019-01-04T11:32:02.151Z,28.07
2019-01-04T11:34:49.837Z,28.32
2019-01-04T11:37:27.202Z,27.60
2019-01-04T11:40:13.661Z,26.23
2019-01-04T11:42:51.108Z,24.00
2019-01-04T11:45:22.843Z,25.70
2019-01-04T11:48:21.728Z,25.08
2019-01-04T11:51:14.057Z,25.72
2019-01-04T11:53:42.540Z,26.48
2019-01-04T11:56:10.930Z,25.52
2019-01-04T11:58:39.321Z,24.87
2019-01-04T12:01:07.727Z,25.20
2019-01-04T12:03:36.357Z,25.90
2019-01-04T12:06:04.749Z,25.57
2019-01-04T12:08:33.437Z,23.20
2019-01-04T12:11:01.830Z,22.85
2019-01-04T12:13:30.222Z,22.48
2019-01-04T12:15:58.632Z,22.52
2019-01-04T12:18:27.024Z,23.00
2019-01-04T12:20:55.738Z,24.70
2019-01-04T12:23:24.514Z,25.80
2019-01-04T12:25:52.893Z,24.90
2019-01-04T12:28:21.285Z,24.18
2019-01-04T12:30:49.969Z,23.67
2019-01-04T12:33:18.365Z,24.23
2019-01-04T12:35:46.751Z,25.75
2019-01-04T12:38:15.456Z,25.92
2019-01-04T12:40:43.803Z,26.75
2019-01-04T12:43:12.198Z,23.45
2019-01-04T12:45:40.606Z,25.30
2019-01-04T12:48:08.998Z,26.73
2019-01-04T12:50:37.387Z,28.52
2019-01-04T12:53:05.794Z,28.70
2019-01-04T12:55:34.184Z,25.80
2019-01-04T12:58:02.853Z,26.62
2019-01-04T13:00:31.257Z,25.40
2019-01-04T13:02:59.917Z,25.65
2019-01-04T13:05:28.608Z,26.50
2019-01-04T13:07:57.016Z,26.20
2019-01-04T13:10:25.874Z,24.50
2019-01-04T13:12:54.335Z,25.05
2019-01-04T13:15:22.740Z,24.70
2019-01-04T13:17:51.137Z,23.20
2019-01-04T13:20:19.539Z,25.37
2019-01-04T13:22:47.926Z,25.80
2019-01-04T13:25:16.339Z,25.30
2019-01-04T13:27:45.040Z,24.30
2019-01-04T13:30:13.724Z,24.50
2019-01-04T13:32:42.133Z,22.93
2019-01-04T13:35:10.524Z,25.32
2019-01-04T13:37:38.908Z,22.93
2019-01-04T13:40:07.650Z,22.55
2019-01-04T13:42:36.040Z,22.75
2019-01-04T13:45:05.471Z,24.85
2019-01-04T13:47:33.879Z,26.25
2019-01-04T13:50:02.596Z,25.00
2019-01-04T13:52:31.282Z,23.42
2019-01-04T13:54:59.697Z,24.55
2019-01-04T13:57:28.158Z,24.60
2019-01-04T13:59:56.841Z,25.80
2019-01-04T14:02:25.257Z,24.87
2019-01-04T14:04:53.646Z,22.98
2019-01-04T14:07:22.034Z,23.83
2019-01-04T14:09:50.451Z,22.67
2019-01-04T14:12:18.839Z,22.30
2019-01-04T14:14:47.242Z,22.22
2019-01-04T14:17:15.901Z,20.88
2019-01-04T14:19:44.579Z,23.30
2019-01-04T14:22:12.974Z,22.32
2019-01-04T14:24:41.403Z,25.30
2019-01-04T14:27:10.017Z,24.70
2019-01-04T14:29:38.707Z,23.42
2019-01-04T14:32:07.114Z,24.40
2019-01-04T14:34:35.523Z,24.45
2019-01-04T14:37:04.249Z,25.32
2019-01-04T14:39:32.639Z,25.97
2019-01-04T14:42:01.054Z,25.10
2019-01-04T14:44:29.692Z,20.97
2019-01-04T14:46:58.376Z,23.73
2019-01-04T14:49:27.027Z,22.85
2019-01-04T14:51:55.418Z,22.75
2019-01-04T14:54:24.052Z,21.30
2019-01-04T14:56:52.458Z,21.60
2019-01-04T14:59:21.194Z,21.02
2019-01-04T15:01:49.584Z,20.10
2019-01-04T15:04:18.258Z,19.17
2019-01-04T15:06:46.647Z,18.95
2019-01-04T15:09:15.048Z,19.20
2019-01-04T15:11:43.907Z,22.42
2019-01-04T15:14:12.596Z,19.10
2019-01-04T15:16:40.986Z,22.17
2019-01-04T15:19:09.389Z,20.50
2019-01-04T15:21:37.785Z,19.73
2019-01-04T15:24:06.191Z,18.60
2019-01-04T15:26:34.578Z,18.30
2019-01-04T15:29:02.978Z,19.32
2019-01-04T15:31:31.387Z,19.17
2019-01-04T15:33:59.779Z,20.15
2019-01-04T15:36:28.178Z,18.20
2019-01-04T15:38:56.573Z,18.65
2019-01-04T15:41:24.967Z,20.55
2019-01-04T15:43:53.369Z,21.48
2019-01-04T15:46:21.774Z,20.40
2019-01-04T15:48:50.160Z,20.85
2019-01-04T15:51:18.884Z,20.40
2019-01-04T15:53:47.577Z,21.25
2019-01-04T15:56:15.971Z,20.82
2019-01-04T15:58:44.635Z,22.13
2019-01-04T16:01:13.326Z,21.12
2019-01-04T16:03:41.716Z,21.30
2019-01-04T16:06:10.122Z,20.05
2019-01-04T16:08:38.769Z,20.97
2019-01-04T16:11:07.454Z,21.35
2019-01-04T16:13:35.858Z,20.10
2019-01-04T16:16:04.246Z,20.40
2019-01-04T16:18:32.632Z,19.50
2019-01-04T16:21:01.062Z,20.17
2019-01-04T16:23:29.454Z,20.82
2019-01-04T16:25:57.846Z,18.17
2019-01-04T16:28:26.249Z,19.70
2019-01-04T16:30:54.881Z,18.52
2019-01-04T16:33:23.580Z,18.98
2019-01-04T16:35:51.990Z,19.40
2019-01-04T16:38:20.641Z,19.48
2019-01-04T16:40:49.031Z,21.70
2019-01-04T16:43:17.437Z,20.55
2019-01-04T16:45:45.834Z,20.40
2019-01-04T16:48:14.568Z,21.42
2019-01-04T16:50:43.252Z,21.93
2019-01-04T16:53:11.644Z,21.62
2019-01-04T16:55:40.116Z,23.18
2019-01-04T16:58:08.521Z,24.18
2019-01-04T17:00:37.177Z,25.55
2019-01-04T17:03:05.643Z,25.08
2019-01-04T17:05:34.052Z,26.50
2019-01-04T17:08:02.508Z,24.43
2019-01-04T17:10:31.306Z,27.15
2019-01-04T17:12:59.718Z,26.23
2019-01-04T17:15:28.108Z,25.05
2019-01-04T17:17:56.538Z,26.25
2019-01-04T17:20:24.906Z,23.85
2019-01-04T17:22:53.295Z,23.60
2019-01-04T17:25:21.993Z,24.25
2019-01-04T17:27:50.409Z,22.00
2019-01-04T17:30:18.810Z,23.77
2019-01-04T17:32:47.202Z,24.37
2019-01-04T17:35:15.612Z,23.50
2019-01-04T17:37:43.998Z,22.85
2019-01-04T17:40:12.396Z,22.37
2019-01-04T17:42:40.877Z,23.57
2019-01-04T17:45:09.332Z,22.93
2019-01-04T17:47:37.724Z,20.20
2019-01-04T17:50:07.682Z,23.20
2019-01-04T17:52:36.064Z,20.80
2019-01-04T17:55:05.090Z,21.77
2019-01-04T17:57:33.783Z,22.00
2019-01-04T18:00:02.169Z,22.13
2019-01-04T18:02:30.557Z,21.33
2019-01-04T18:04:59.034Z,22.70
2019-01-04T18:07:27.707Z,23.87
2019-01-04T18:09:56.094Z,22.45
2019-01-04T18:12:24.769Z,22.75
2019-01-04T18:14:53.160Z,21.60
2019-01-04T18:17:21.832Z,21.33
2019-01-04T18:19:50.521Z,21.75
2019-01-04T18:22:19.204Z,23.02
2019-01-04T18:24:47.597Z,21.87
2019-01-04T18:27:16.002Z,22.27
2019-01-04T18:29:44.390Z,22.42
2019-01-04T18:32:12.782Z,22.13
2019-01-04T18:34:41.264Z,21.93
2019-01-04T18:37:09.989Z,21.42
2019-01-04T18:39:38.677Z,20.20
2019-01-04T18:42:07.362Z,21.70
2019-01-04T18:44:35.756Z,19.07
2019-01-04T18:47:04.210Z,19.20
2019-01-04T18:49:32.615Z,20.20
2019-01-04T18:52:01.004Z,19.57
2019-01-04T18:54:29.395Z,18.30
2019-01-04T18:56:57.799Z,20.55
2019-01-04T18:59:26.189Z,21.80
2019-01-04T19:01:54.571Z,20.70
2019-01-04T19:04:22.976Z,21.27
2019-01-04T19:06:51.688Z,20.43
2019-01-04T19:09:20.080Z,20.80
2019-01-04T19:11:48.490Z,23.05
2019-01-04T19:14:16.875Z,21.60
2019-01-04T19:16:52.453Z,22.00
2019-01-04T19:19:20.859Z,22.93
2019-01-04T19:21:49.254Z,24.10
2019-01-04T19:24:17.646Z,22.32
2019-01-04T19:26:46.397Z,23.83
2019-01-04T19:29:15.021Z,22.80
2019-01-04T19:31:43.415Z,22.87
2019-01-04T19:34:11.829Z,23.57
2019-01-04T19:36:40.224Z,23.50
2019-01-04T19:39:48.529Z,21.27
2019-01-04T19:42:16.916Z,24.67
2019-01-04T19:45:05.348Z,21.82
2019-01-04T19:47:33.741Z,23.80
2019-01-04T19:50:42.049Z,24.30
2019-01-04T19:53:10.445Z,24.90
2019-01-04T19:55:38.836Z,23.52
2019-01-04T19:58:07.631Z,26.62
2019-01-04T20:00:36.024Z,24.92
2019-01-04T20:03:04.675Z,25.02
2019-01-04T20:06:13.298Z,27.07
2019-01-04T20:09:39.478Z,24.82
2019-01-04T20:13:05.591Z,25.80
2019-01-04T20:16:13.945Z,26.40
2019-01-04T20:19:02.533Z,25.00
2019-01-04T20:24:39.146Z,27.55
2019-01-04T20:27:26.645Z,28.98
2019-01-04T20:30:14.404Z,26.27
2019-01-04T20:33:01.940Z,24.50
2019-01-04T20:38:24.990Z,26.40
2019-01-04T20:41:12.497Z,25.50
2019-01-04T20:44:00.018Z,26.33
2019-01-04T20:46:47.752Z,27.93
2019-01-04T20:49:35.279Z,26.15
2019-01-04T20:55:11.869Z,26.52
2019-01-04T20:57:59.630Z,26.48
2019-01-04T21:03:23.008Z,28.10
2019-01-04T21:08:59.606Z,28.25
2019-01-04T21:11:47.341Z,29.70
2019-01-04T21:14:34.859Z,29.02
2019-01-04T21:20:11.697Z,30.55
2019-01-04T21:22:59.438Z,31.35
2019-01-04T21:25:47.200Z,30.52
2019-01-04T21:28:34.726Z,29.75
2019-01-04T21:31:22.483Z,31.05
2019-01-04T21:34:10.221Z,30.05
2019-01-04T21:36:57.975Z,29.75
2019-01-04T21:39:45.480Z,28.27
2019-01-04T21:42:33.238Z,29.48
2019-01-04T21:45:20.981Z,28.62
2019-01-04T21:48:08.549Z,27.70
2019-01-04T21:50:56.302Z,26.45
2019-01-04T21:53:44.067Z,28.98
2019-01-04T21:59:20.906Z,28.40
2019-01-04T22:02:08.406Z,28.30
2019-01-04T22:04:55.929Z,27.60
2019-01-04T22:07:43.425Z,26.70
2019-01-04T22:10:30.976Z,26.60
2019-01-04T22:16:26.932Z,27.75
2019-01-04T22:19:14.434Z,26.82
2019-01-04T22:22:01.956Z,27.95
2019-01-04T22:27:38.790Z,25.00
2019-01-04T22:30:47.090Z,25.23
2019-01-04T22:33:34.850Z,26.37
2019-01-04T22:36:22.603Z,24.52
2019-01-04T22:39:10.124Z,24.02
2019-01-04T22:41:57.628Z,27.15
2019-01-04T22:44:45.410Z,24.30
2019-01-04T22:47:32.908Z,26.33
2019-01-04T22:50:21.131Z,25.88
2019-01-04T22:53:08.651Z,24.92
2019-01-04T22:55:56.173Z,25.62
2019-01-04T22:58:43.678Z,27.30
2019-01-04T23:01:31.508Z,26.85
2019-01-04T23:04:19.013Z,26.80
2019-01-04T23:07:06.538Z,26.50
2019-01-04T23:09:54.275Z,22.95
2019-01-04T23:12:41.798Z,26.45
2019-01-04T23:15:29.365Z,23.52
2019-01-04T23:18:17.174Z,25.45
2019-01-04T23:21:43.273Z,22.82
2019-01-04T23:24:30.807Z,23.02
2019-01-04T23:30:07.457Z,23.20
2019-01-04T23:35:44.053Z,24.90
2019-01-04T23:38:31.788Z,22.70
2019-01-04T23:41:19.313Z,21.45
2019-01-04T23:44:07.048Z,24.07
2019-01-04T23:49:30.406Z,22.58
2019-01-04T23:52:17.914Z,21.40
2019-01-04T23:55:05.449Z,20.17
